Time;durP1;ratioP1;P1;durP2;ratioP2;P2;SDS_P1;SDS_P2;PMS_P1;PMS_P2;Temp;Humidity;BMP_temperature;BMP_pressure;BME280_temperature;BME280_humidity;BME280_pressure;Samples;Min_cycle;Max_cycle;Signal;HPM_P1;HPM_P2
2023/10/16 00:01:31;;;;;;;5.93;2.95;;;24.40;46.00;;;;;;6228316;27;80236;-59
2023/10/16 00:04:32;;;;;;;8.95;3.08;;;24.40;46.10;;;;;;6219475;28;80969;-61
2023/10/16 00:07:33;;;;;;;6.93;2.35;;;24.40;46.00;;;;;;6227804;28;80816;-61
2023/10/16 00:10:35;;;;;;;5.45;2.78;;;24.40;45.90;;;;;;6229554;28;81113;-60
2023/10/16 00:13:39;;;;;;;6.07;3.22;;;24.40;45.90;;;;;;6219470;28;80673;-59
2023/10/16 00:16:44;;;;;;;6.40;3.05;;;24.40;45.70;;;;;;6223366;28;80165;-59
2023/10/16 00:19:45;;;;;;;5.10;2.60;;;24.40;45.80;;;;;;6217062;28;81380;-63
2023/10/16 00:22:45;;;;;;;4.97;3.10;;;24.40;45.70;;;;;;6205509;28;82540;-65
2023/10/16 00:25:46;;;;;;;4.78;2.90;;;24.40;45.80;;;;;;6219547;27;80763;-66
2023/10/16 00:28:52;;;;;;;7.00;2.70;;;24.40;45.80;;;;;;6228059;27;80969;-64
2023/10/16 00:31:58;;;;;;;3.63;2.30;;;24.40;45.90;;;;;;6227585;27;80516;-63
2023/10/16 00:35:00;;;;;;;;;;;24.40;45.80;;;;;;6227051;28;81576;-63
2023/10/16 00:38:03;;;;;;;3.95;2.60;;;24.30;45.80;;;;;;6217502;27;85357;-65
2023/10/16 00:44:16;;;;;;;5.30;2.50;;;24.40;45.60;;;;;;6207350;28;80384;-66
2023/10/16 00:47:17;;;;;;;5.22;2.67;;;24.40;45.70;;;;;;6209460;28;81320;-65
2023/10/16 00:50:19;;;;;;;3.55;2.55;;;24.40;45.80;;;;;;6216308;28;81951;-64
2023/10/16 00:53:20;;;;;;;3.22;2.38;;;24.30;45.80;;;;;;6201357;28;81496;-64
2023/10/16 00:56:27;;;;;;;4.18;2.42;;;24.40;45.90;;;;;;6203147;28;81198;-59
2023/10/16 00:59:28;;;;;;;4.13;2.33;;;24.30;45.80;;;;;;6219821;28;83676;-58
2023/10/16 01:02:31;;;;;;;5.00;2.30;;;24.30;45.70;;;;;;6221224;28;80412;-59
2023/10/16 01:05:33;;;;;;;3.42;2.05;;;24.30;45.70;;;;;;6202144;28;83571;-59
2023/10/16 01:08:33;;;;;;;3.90;2.38;;;24.30;45.70;;;;;;6203829;28;81302;-58
2023/10/16 01:11:37;;;;;;;3.15;1.92;;;24.30;45.70;;;;;;6217814;28;81950;-59
2023/10/16 01:14:37;;;;;;;2.80;2.00;;;24.30;45.80;;;;;;6213976;28;80372;-59
2023/10/16 01:17:38;;;;;;;4.30;2.22;;;24.30;45.80;;;;;;6216213;28;82178;-58
2023/10/16 01:20:43;;;;;;;3.50;2.22;;;24.30;45.80;;;;;;6200897;28;83594;-58
2023/10/16 01:23:44;;;;;;;2.97;1.90;;;24.30;45.90;;;;;;6200233;28;81429;-58
2023/10/16 01:26:45;;;;;;;2.97;1.80;;;24.30;45.90;;;;;;6202742;28;80912;-59
2023/10/16 01:29:47;;;;;;;3.00;2.10;;;24.30;45.90;;;;;;6209690;28;82197;-59
2023/10/16 01:32:47;;;;;;;4.25;2.08;;;24.30;45.90;;;;;;6220705;28;80621;-59
2023/10/16 01:35:48;;;;;;;5.43;2.40;;;24.30;45.90;;;;;;6223906;28;80465;-59
2023/10/16 01:38:48;;;;;;;3.40;1.75;;;24.30;45.90;;;;;;6225004;27;80869;-59
2023/10/16 01:41:52;;;;;;;3.22;2.00;;;24.30;45.90;;;;;;6239042;28;83540;-59
2023/10/16 01:44:52;;;;;;;3.33;1.92;;;24.30;45.90;;;;;;6243061;28;80398;-59
2023/10/16 01:47:53;;;;;;;3.90;2.00;;;24.30;45.80;;;;;;6223185;28;83814;-59
2023/10/16 01:50:53;;;;;;;4.40;2.00;;;24.30;46.00;;;;;;6220543;27;81336;-66
2023/10/16 01:53:55;;;;;;;4.55;2.22;;;24.30;46.00;;;;;;6198043;28;81094;-67
2023/10/16 01:56:55;;;;;;;4.43;2.40;;;24.30;46.10;;;;;;6200471;28;80391;-66
2023/10/16 01:59:56;;;;;;;3.25;2.08;;;24.30;46.00;;;;;;6214325;28;83239;-64
2023/10/16 02:02:57;;;;;;;3.22;2.03;;;24.30;46.70;;;;;;6224847;28;81970;-65
2023/10/16 02:05:58;;;;;;;4.05;2.20;;;24.30;46.00;;;;;;6212740;28;80799;-65
2023/10/16 02:08:59;;;;;;;3.53;1.88;;;24.30;46.00;;;;;;6216905;28;81719;-60
2023/10/16 02:12:00;;;;;;;3.67;2.00;;;24.30;45.90;;;;;;6202646;28;81125;-59
2023/10/16 02:15:05;;;;;;;4.18;2.25;;;24.30;46.00;;;;;;6212777;28;80710;-60
2023/10/16 02:18:24;;;;;;;6.07;2.37;;;24.30;46.00;;;;;;6212385;28;83949;-59
2023/10/16 02:21:25;;;;;;;2.85;2.00;;;24.20;45.90;;;;;;6214687;28;81880;-60
2023/10/16 02:24:25;;;;;;;3.78;1.80;;;24.20;45.90;;;;;;6225944;27;83612;-60
2023/10/16 02:27:26;;;;;;;2.65;1.48;;;24.30;46.00;;;;;;6225665;27;80711;-60
2023/10/16 02:33:28;;;;;;;1.98;1.38;;;24.20;45.70;;;;;;6224847;28;80451;-58
2023/10/16 02:36:29;;;;;;;2.90;1.80;;;24.20;45.80;;;;;;6214924;28;80509;-58
2023/10/16 02:39:37;;;;;;;3.75;1.80;;;24.20;45.80;;;;;;6201497;28;81612;-59
2023/10/16 02:42:38;;;;;;;3.15;1.40;;;24.20;45.70;;;;;;6225537;28;80797;-59
2023/10/16 02:45:42;;;;;;;1.90;1.25;;;24.20;45.80;;;;;;6224389;27;81605;-59
2023/10/16 02:48:42;;;;;;;2.03;1.63;;;24.20;45.70;;;;;;6222729;28;82165;-60
2023/10/16 02:51:43;;;;;;;2.28;1.70;;;24.20;45.80;;;;;;6224570;27;81435;-60
2023/10/16 02:54:44;;;;;;;3.33;1.50;;;24.20;45.80;;;;;;6223637;28;80449;-60
2023/10/16 02:57:45;;;;;;;1.50;1.23;;;24.20;45.80;;;;;;6225404;27;80377;-60
2023/10/16 03:00:49;;;;;;;4.25;1.50;;;24.20;45.80;;;;;;6208490;28;80840;-60
2023/10/16 03:03:50;;;;;;;5.88;2.28;;;24.20;45.90;;;;;;6201484;28;83927;-59
2023/10/16 03:06:54;;;;;;;3.45;1.45;;;24.20;45.80;;;;;;6213111;28;81210;-60
2023/10/16 03:09:55;;;;;;;2.97;1.70;;;24.20;45.80;;;;;;6201497;28;80203;-60
2023/10/16 03:12:59;;;;;;;1.75;1.20;;;24.20;45.70;;;;;;6203708;28;81333;-60
2023/10/16 03:16:05;;;;;;;2.45;1.20;;;24.30;45.80;;;;;;6222289;28;82332;-61
2023/10/16 03:19:09;;;;;;;3.45;1.38;;;24.20;45.80;;;;;;6223171;27;81071;-60
2023/10/16 03:22:12;;;;;;;2.40;1.50;;;24.20;45.80;;;;;;6224176;28;81494;-67
2023/10/16 03:25:25;;;;;;;3.42;1.40;;;24.20;45.80;;;;;;6225417;27;84724;-66
2023/10/16 03:28:26;;;;;;;2.75;1.30;;;24.20;46.00;;;;;;6229055;28;82098;-67
2023/10/16 03:31:30;;;;;;;2.58;1.50;;;24.20;46.00;;;;;;6229058;27;80242;-67
2023/10/16 03:34:32;;;;;;;4.75;1.40;;;24.20;46.00;;;;;;6219101;28;84907;-66
2023/10/16 03:37:35;;;;;;;2.80;1.17;;;24.20;46.20;;;;;;6240968;27;80783;-64
2023/10/16 03:40:35;;;;;;;1.65;1.15;;;24.30;46.30;;;;;;6229241;27;81135;-67
2023/10/16 03:43:36;;;;;;;2.03;1.10;;;24.30;46.10;;;;;;6233198;28;85100;-68
2023/10/16 03:46:38;;;;;;;2.85;1.20;;;24.30;46.20;;;;;;6219028;28;80084;-65
2023/10/16 03:49:38;;;;;;;2.28;1.27;;;24.30;46.10;;;;;;6216903;28;81150;-66
2023/10/16 03:52:39;;;;;;;1.67;1.13;;;24.30;46.20;;;;;;6222395;28;80484;-64
2023/10/16 03:55:39;;;;;;;3.28;1.63;;;24.40;46.00;;;;;;6221434;28;80774;-66
2023/10/16 03:58:44;;;;;;;3.85;1.75;;;24.40;46.00;;;;;;6229225;27;80551;-62
2023/10/16 04:01:44;;;;;;;4.45;1.20;;;24.40;46.20;;;;;;6228746;27;80949;-60
2023/10/16 04:04:45;;;;;;;4.30;1.10;;;24.40;46.20;;;;;;6227341;27;80575;-60
2023/10/16 04:07:45;;;;;;;4.05;1.50;;;24.40;45.90;;;;;;6228291;27;81413;-58
2023/10/16 04:10:46;;;;;;;1.75;1.00;;;24.40;46.10;;;;;;6227131;27;81631;-59
2023/10/16 04:13:49;;;;;;;2.20;1.65;;;24.40;46.00;;;;;;6227189;27;80633;-61
2023/10/16 04:16:56;;;;;;;9.55;1.83;;;24.40;46.40;;;;;;6224700;27;81505;-65
2023/10/16 04:20:03;;;;;;;3.92;1.55;;;24.50;47.30;;;;;;6211241;28;81621;-62
2023/10/16 04:23:05;;;;;;;2.55;1.00;;;24.50;46.50;;;;;;6226867;28;80828;-66
2023/10/16 04:29:25;;;;;;;4.28;1.45;;;24.50;46.60;;;;;;6215047;28;80469;-62
2023/10/16 04:35:52;;;;;;;8.65;1.30;;;24.60;46.90;;;;;;6229898;27;80069;-62
2023/10/16 04:38:53;;;;;;;5.93;1.30;;;24.60;46.80;;;;;;6222683;28;80908;-57
2023/10/16 04:51:56;;;;;;;6.47;1.88;;;24.70;47.00;;;;;;6186556;28;85022;-62
2023/10/16 04:55:02;;;;;;;9.45;1.90;;;24.70;46.90;;;;;;6243080;27;81117;-61
2023/10/16 05:01:55;;;;;;;6.28;1.70;;;24.70;47.80;;;;;;6227324;28;80255;-64
2023/10/16 05:08:31;;;;;;;4.50;1.52;;;24.50;44.00;;;;;;6238337;28;81834;-62
2023/10/16 05:15:37;;;;;;;6.03;1.52;;;24.10;43.40;;;;;;6228055;27;80744;-62
2023/10/16 05:18:20;;;;;;;4.90;1.30;;;24.00;44.00;;;;;;6214728;28;80389;-62
2023/10/16 06:14:36;;;;;;;1.92;1.15;;;22.90;41.00;;;;;;6223057;28;81391;-68
2023/10/16 06:17:37;;;;;;;4.63;1.40;;;22.90;40.90;;;;;;6224914;27;80450;-68
2023/10/16 06:20:38;;;;;;;2.72;1.58;;;22.90;41.00;;;;;;6237248;27;80387;-70
2023/10/16 06:23:42;;;;;;;8.80;1.52;;;22.80;40.90;;;;;;6225035;27;80456;-66
2023/10/16 06:26:46;;;;;;;9.93;1.60;;;22.80;41.10;;;;;;6223044;28;80664;-59
2023/10/16 06:29:50;;;;;;;5.85;1.40;;;22.80;41.20;;;;;;6217283;28;81653;-61
2023/10/16 06:32:52;;;;;;;5.93;1.45;;;22.80;41.40;;;;;;6214628;28;84557;-64
2023/10/16 06:35:53;;;;;;;5.72;1.65;;;22.80;41.70;;;;;;6224267;27;81014;-60
2023/10/16 06:38:53;;;;;;;4.57;1.42;;;22.80;41.60;;;;;;6223374;28;81050;-61
2023/10/16 06:41:54;;;;;;;5.43;1.58;;;22.90;41.60;;;;;;6217772;28;80756;-61
2023/10/16 06:45:07;;;;;;;7.20;1.52;;;22.90;41.40;;;;;;6213207;28;83041;-63
2023/10/16 06:48:08;;;;;;;2.42;1.25;;;22.90;41.70;;;;;;6218126;28;82732;-61
2023/10/16 06:51:15;;;;;;;4.35;1.63;;;22.90;41.60;;;;;;6223721;27;80444;-60
2023/10/16 06:54:15;;;;;;;3.72;1.50;;;22.90;41.70;;;;;;6225197;28;80449;-71
2023/10/16 06:57:19;;;;;;;28.80;2.05;;;22.90;41.70;;;;;;6209411;28;81462;-67
2023/10/16 07:00:27;;;;;;;14.00;1.95;;;22.90;41.60;;;;;;6221396;28;80539;-58
2023/10/16 07:03:28;;;;;;;11.82;1.30;;;22.90;41.90;;;;;;6216620;28;85017;-65
2023/10/16 07:06:34;;;;;;;5.78;1.70;;;23.00;42.30;;;;;;6227403;28;81067;-59
2023/10/16 07:09:37;;;;;;;6.25;1.63;;;23.10;42.50;;;;;;6223832;27;80589;-65
2023/10/16 07:12:56;;;;;;;1.50;1.13;;;23.10;42.50;;;;;;6221902;28;80499;-64
2023/10/16 07:15:56;;;;;;;3.85;1.55;;;23.20;42.80;;;;;;6226889;28;82000;-68
2023/10/16 07:18:57;;;;;;;4.88;1.33;;;23.20;42.70;;;;;;6223929;28;80446;-66
2023/10/16 07:22:00;;;;;;;19.40;2.10;;;23.30;42.80;;;;;;6222204;27;80943;-58
2023/10/16 07:25:23;;;;;;;38.78;2.47;;;23.30;42.80;;;;;;6227872;28;80535;-58
2023/10/16 07:28:23;;;;;;;4.90;1.95;;;23.30;42.70;;;;;;6219914;28;80431;-58
2023/10/16 07:31:24;;;;;;;5.05;1.48;;;23.30;42.60;;;;;;6225582;28;80301;-58
2023/10/16 07:34:25;;;;;;;7.13;1.70;;;23.30;42.70;;;;;;6230878;28;80500;-58
2023/10/16 07:37:25;;;;;;;11.23;1.38;;;23.30;42.90;;;;;;6229342;28;90945;-58
2023/10/16 07:40:26;;;;;;;7.00;2.20;;;23.40;42.80;;;;;;6206966;28;80421;-59
2023/10/16 07:43:27;;;;;;;11.35;2.50;;;23.40;42.90;;;;;;6212763;28;81307;-59
2023/10/16 07:46:29;;;;;;;7.85;1.65;;;23.50;42.60;;;;;;6211010;28;80995;-58
2023/10/16 07:49:29;;;;;;;7.68;1.70;;;23.50;42.50;;;;;;6221470;27;82369;-59
2023/10/16 07:52:30;;;;;;;4.72;1.50;;;23.60;42.70;;;;;;6220022;28;80483;-60
2023/10/16 07:55:39;;;;;;;7.57;1.85;;;23.60;42.50;;;;;;6222249;28;81738;-58
2023/10/16 07:58:48;;;;;;;4.97;1.23;;;23.60;42.30;;;;;;6221454;28;80833;-64
2023/10/16 08:01:57;;;;;;;2.83;1.35;;;23.70;42.00;;;;;;6216263;27;80521;-71
2023/10/16 08:05:03;;;;;;;4.05;1.50;;;23.70;41.80;;;;;;6219351;28;84068;-64
2023/10/16 08:08:11;;;;;;;6.35;1.30;;;23.70;41.70;;;;;;6227301;28;80427;-65
2023/10/16 08:11:18;;;;;;;3.08;1.20;;;23.70;42.00;;;;;;6221375;27;81249;-64
2023/10/16 08:14:19;;;;;;;4.72;1.55;;;23.70;42.60;;;;;;6224250;28;80733;-66
2023/10/16 08:17:23;;;;;;;6.32;1.95;;;23.80;43.20;;;;;;6226217;27;83151;-62
2023/10/16 08:20:29;;;;;;;4.43;1.60;;;23.80;43.60;;;;;;6216144;27;83005;-64
2023/10/16 08:23:37;;;;;;;5.78;1.48;;;23.90;43.80;;;;;;6215305;27;80496;-65
2023/10/16 08:26:44;;;;;;;2.58;1.25;;;23.80;43.80;;;;;;6212557;28;80434;-63
2023/10/16 08:29:54;;;;;;;2.22;1.35;;;23.80;43.80;;;;;;6215562;28;81295;-62
2023/10/16 08:32:55;;;;;;;5.18;1.73;;;23.90;44.00;;;;;;6223294;28;80347;-63
2023/10/16 08:35:58;;;;;;;6.97;1.50;;;23.90;44.00;;;;;;6221353;27;80348;-62
2023/10/16 08:39:08;;;;;;;3.92;1.95;;;23.90;43.80;;;;;;6203366;28;80421;-61
2023/10/16 08:42:18;;;;;;;2.20;1.23;;;23.90;43.70;;;;;;6226302;28;82780;-61
2023/10/16 08:45:24;;;;;;;6.20;2.10;;;23.90;44.00;;;;;;6224373;28;80482;-61
2023/10/16 08:48:25;;;;;;;32.08;14.82;;;23.90;43.90;;;;;;6234888;28;80508;-62
2023/10/16 08:51:28;;;;;;;104.45;47.15;;;24.00;43.90;;;;;;6223347;28;83352;-61
2023/10/16 08:57:48;;;;;;;90.45;40.47;;;24.00;43.70;;;;;;6220883;27;83819;-63
2023/10/16 09:00:48;;;;;;;70.30;34.55;;;23.90;43.60;;;;;;6228574;27;83735;-61
2023/10/16 09:03:50;;;;;;;54.88;24.80;;;24.00;43.60;;;;;;6229017;28;83107;-62
2023/10/16 09:06:51;;;;;;;43.13;20.02;;;24.00;43.20;;;;;;6225536;28;83063;-60
2023/10/16 09:09:53;;;;;;;40.10;18.25;;;23.90;42.90;;;;;;6223040;28;86156;-62
2023/10/16 09:12:56;;;;;;;29.27;13.70;;;23.90;42.90;;;;;;6215779;28;83341;-61
2023/10/16 09:15:57;;;;;;;22.45;10.77;;;23.80;42.60;;;;;;6222512;27;85834;-62
2023/10/16 09:18:58;;;;;;;21.60;10.07;;;23.90;42.50;;;;;;6218754;27;83349;-62
2023/10/16 09:21:58;;;;;;;19.33;8.55;;;23.90;42.40;;;;;;6216185;28;85199;-62
2023/10/16 09:24:59;;;;;;;16.30;6.93;;;23.90;42.00;;;;;;6212129;28;83619;-61
2023/10/16 09:28:00;;;;;;;12.68;6.68;;;23.90;42.10;;;;;;6204448;28;80994;-61
2023/10/16 09:31:03;;;;;;;11.40;5.82;;;23.90;42.30;;;;;;6212151;28;80132;-59
2023/10/16 09:34:05;;;;;;;8.25;4.90;;;23.90;42.20;;;;;;6225899;28;80395;-61
2023/10/16 09:37:22;;;;;;;12.63;5.15;;;24.00;42.30;;;;;;6217760;27;80693;-62
2023/10/16 09:40:38;;;;;;;10.02;4.95;;;24.00;42.20;;;;;;6223878;27;85663;-59
2023/10/16 09:43:40;;;;;;;10.23;5.38;;;24.00;42.40;;;;;;6221996;28;80316;-59
2023/10/16 09:49:47;;;;;;;10.57;4.47;;;24.00;42.70;;;;;;6210900;28;81017;-65
2023/10/16 09:52:48;;;;;;;10.13;5.10;;;24.00;43.10;;;;;;6205001;28;80690;-64
2023/10/16 09:55:48;;;;;;;10.52;5.03;;;24.10;43.50;;;;;;6219160;28;80773;-63
2023/10/16 09:58:51;;;;;;;9.05;4.80;;;24.10;44.20;;;;;;6211901;28;81067;-61
2023/10/16 10:01:55;;;;;;;10.63;4.68;;;24.10;45.10;;;;;;6209258;27;81444;-63
2023/10/16 10:04:59;;;;;;;7.13;4.00;;;24.10;45.80;;;;;;6205517;28;80403;-62
2023/10/16 10:08:00;;;;;;;7.32;3.90;;;24.10;46.40;;;;;;6202607;28;81662;-62
2023/10/16 10:11:15;;;;;;;10.93;4.22;;;24.10;47.00;;;;;;6205967;28;80342;-62
2023/10/16 10:17:25;;;;;;;8.30;4.35;;;24.10;48.00;;;;;;6208992;28;81012;-62
2023/10/16 10:20:26;;;;;;;7.50;3.53;;;24.10;48.40;;;;;;6215594;28;81549;-61
2023/10/16 10:23:26;;;;;;;6.78;3.28;;;24.10;48.80;;;;;;6221629;27;80532;-61
2023/10/16 10:26:27;;;;;;;8.20;4.22;;;24.10;49.10;;;;;;6221326;28;81242;-63
2023/10/16 10:29:28;;;;;;;6.50;3.58;;;24.10;49.20;;;;;;6212904;28;80112;-62
2023/10/16 10:32:28;;;;;;;6.28;3.45;;;24.10;49.50;;;;;;6222170;28;81509;-61
2023/10/16 10:35:29;;;;;;;11.70;3.13;;;24.10;49.70;;;;;;6210005;28;80243;-61
2023/10/16 10:38:30;;;;;;;5.78;2.90;;;24.10;49.80;;;;;;6207275;28;80377;-61
2023/10/16 10:41:30;;;;;;;6.22;2.90;;;24.10;49.90;;;;;;6205652;28;80390;-61
2023/10/16 10:44:31;;;;;;;6.13;3.00;;;24.10;50.10;;;;;;6218860;28;80326;-63
2023/10/16 10:47:31;;;;;;;6.60;3.20;;;24.10;50.10;;;;;;6216862;28;80476;-64
2023/10/16 10:50:32;;;;;;;5.35;2.88;;;24.10;50.20;;;;;;6223795;28;81074;-64
2023/10/16 10:53:36;;;;;;;6.35;3.00;;;24.10;50.30;;;;;;6204657;28;80489;-63
2023/10/16 10:56:37;;;;;;;6.15;3.05;;;24.10;50.50;;;;;;6220448;28;83592;-65
2023/10/16 10:59:39;;;;;;;5.13;2.45;;;24.10;50.60;;;;;;6219315;27;81609;-65
2023/10/16 11:02:52;;;;;;;4.43;2.78;;;24.10;50.90;;;;;;6214208;27;81311;-64
2023/10/16 11:05:54;;;;;;;7.07;3.10;;;24.10;50.90;;;;;;6215804;28;81299;-63
2023/10/16 11:08:55;;;;;;;3.78;2.35;;;24.10;50.90;;;;;;6222867;28;83978;-64
2023/10/16 11:11:56;;;;;;;5.65;2.33;;;24.20;50.90;;;;;;6220881;28;80683;-62
2023/10/16 11:14:56;;;;;;;6.35;2.45;;;24.20;51.00;;;;;;6223059;28;81268;-62
2023/10/16 11:18:05;;;;;;;5.50;2.70;;;24.20;51.10;;;;;;6223610;28;84598;-63
2023/10/16 11:21:07;;;;;;;4.47;2.75;;;24.20;51.10;;;;;;6211458;28;80870;-64
2023/10/16 11:24:07;;;;;;;5.80;2.20;;;24.20;51.30;;;;;;6219823;28;82191;-62
2023/10/16 11:27:08;;;;;;;4.20;2.25;;;24.20;51.00;;;;;;6224588;28;82532;-62
2023/10/16 11:30:11;;;;;;;3.90;2.50;;;24.20;50.90;;;;;;6228528;28;80498;-63
2023/10/16 11:33:12;;;;;;;5.05;2.70;;;24.20;51.10;;;;;;6220586;28;82376;-62
2023/10/16 11:36:16;;;;;;;3.83;2.30;;;24.20;51.60;;;;;;6223079;28;85567;-61
2023/10/16 11:39:19;;;;;;;5.32;2.25;;;24.20;51.30;;;;;;6219082;27;83660;-61
2023/10/16 11:42:20;;;;;;;8.13;2.45;;;24.20;51.10;;;;;;6218088;28;81370;-62
2023/10/16 11:45:23;;;;;;;2.95;2.10;;;24.20;51.80;;;;;;6210670;28;80723;-60
2023/10/16 11:51:24;;;;;;;5.35;2.30;;;24.30;52.60;;;;;;6212796;28;81868;-65
2023/10/16 11:54:24;;;;;;;5.93;2.92;;;24.30;52.80;;;;;;6229593;27;80970;-63
2023/10/16 11:57:25;;;;;;;3.75;1.73;;;24.30;53.30;;;;;;6230211;27;83943;-66
2023/10/16 12:00:30;;;;;;;3.45;2.25;;;24.30;53.40;;;;;;6227655;28;82727;-65
2023/10/16 12:03:31;;;;;;;3.70;2.17;;;24.30;53.50;;;;;;6225245;28;86891;-61
2023/10/16 12:06:33;;;;;;;6.88;2.83;;;24.30;53.60;;;;;;6216040;28;80777;-61
2023/10/16 12:09:37;;;;;;;4.35;2.42;;;24.30;53.80;;;;;;6219094;28;80753;-61
2023/10/16 12:12:38;;;;;;;3.83;1.83;;;24.30;53.50;;;;;;6220843;27;80267;-61
2023/10/16 12:15:39;;;;;;;4.85;2.20;;;24.30;53.80;;;;;;6224009;28;82046;-61
2023/10/16 12:18:40;;;;;;;3.58;2.38;;;24.30;54.10;;;;;;6201513;28;80475;-61
2023/10/16 12:21:41;;;;;;;5.15;2.20;;;24.30;54.00;;;;;;6206139;28;81314;-61
2023/10/16 12:24:41;;;;;;;3.28;1.92;;;24.30;54.20;;;;;;6219059;27;80300;-61
2023/10/16 12:27:42;;;;;;;4.80;2.08;;;24.30;54.70;;;;;;6223923;28;80859;-63
2023/10/16 12:30:42;;;;;;;6.03;2.17;;;24.30;55.30;;;;;;6218992;28;82984;-64
2023/10/16 12:33:43;;;;;;;4.57;1.95;;;24.30;56.20;;;;;;6228583;28;81593;-65
2023/10/16 12:36:43;;;;;;;3.80;1.88;;;24.30;56.20;;;;;;6229586;27;80617;-64
2023/10/16 12:39:47;;;;;;;6.63;2.33;;;24.30;56.20;;;;;;6229290;28;80740;-65
2023/10/16 12:42:47;;;;;;;5.53;2.20;;;24.30;55.80;;;;;;6228629;27;81055;-66
2023/10/16 12:45:50;;;;;;;5.43;2.42;;;24.30;55.80;;;;;;6227148;28;80879;-65
2023/10/16 12:48:51;;;;;;;7.07;2.20;;;24.30;55.70;;;;;;6229119;27;80988;-69
2023/10/16 12:51:53;;;;;;;4.82;1.85;;;24.30;55.60;;;;;;6229158;27;80396;-65
2023/10/16 12:54:56;;;;;;;3.60;2.03;;;24.30;55.70;;;;;;6220892;28;80818;-64
2023/10/16 12:57:56;;;;;;;3.53;2.00;;;24.30;55.60;;;;;;6215165;28;81555;-62
2023/10/16 13:00:58;;;;;;;5.10;2.15;;;24.30;55.40;;;;;;6206074;28;80479;-63
2023/10/16 13:04:03;;;;;;;4.50;1.65;;;24.30;55.40;;;;;;6204124;28;80130;-64
2023/10/16 13:07:03;;;;;;;3.80;2.00;;;24.40;55.50;;;;;;6205365;28;81124;-63
2023/10/16 13:10:08;;;;;;;3.78;1.73;;;24.40;55.50;;;;;;6228892;27;80636;-63
2023/10/16 13:13:09;;;;;;;4.72;2.25;;;24.40;55.40;;;;;;6205408;28;80431;-63
2023/10/16 13:16:10;;;;;;;4.10;1.67;;;24.40;55.20;;;;;;6219612;28;80509;-65
2023/10/16 13:19:10;;;;;;;2.67;1.90;;;24.40;54.90;;;;;;6229541;28;82735;-65
2023/10/16 13:22:15;;;;;;;4.60;2.15;;;24.40;55.00;;;;;;6213083;28;80640;-63
2023/10/16 13:25:16;;;;;;;3.03;1.60;;;24.40;55.10;;;;;;6225910;28;81638;-64
2023/10/16 13:28:18;;;;;;;7.15;2.58;;;24.40;55.20;;;;;;6220770;28;81291;-65
2023/10/16 13:31:19;;;;;;;4.95;2.00;;;24.40;55.10;;;;;;6214793;28;82358;-63
2023/10/16 13:34:19;;;;;;;6.15;3.03;;;24.40;55.10;;;;;;6224204;27;80467;-64
2023/10/16 13:37:20;;;;;;;5.95;2.53;;;24.20;50.20;;;;;;6223516;27;80801;-63
2023/10/16 13:40:20;;;;;;;8.00;2.50;;;24.10;48.70;;;;;;6225616;27;81487;-63
2023/10/16 13:43:22;;;;;;;5.88;2.28;;;24.00;47.60;;;;;;6210237;28;81739;-64
2023/10/16 13:46:26;;;;;;;3.95;2.25;;;23.90;47.10;;;;;;6215123;28;81098;-64
2023/10/16 13:49:28;;;;;;;7.30;2.47;;;23.90;45.80;;;;;;6216969;28;80548;-64
2023/10/16 13:52:29;;;;;;;8.20;2.17;;;23.70;46.80;;;;;;6224751;27;80835;-63
2023/10/16 13:55:30;;;;;;;5.68;2.25;;;23.70;46.30;;;;;;6194534;27;86304;-61
2023/10/16 13:58:30;;;;;;;9.40;2.47;;;23.60;46.00;;;;;;6210941;28;80997;-62
2023/10/16 14:01:31;;;;;;;8.70;2.33;;;23.50;45.90;;;;;;6217475;27;82711;-60
2023/10/16 14:04:35;;;;;;;7.65;2.17;;;23.50;46.90;;;;;;6219882;28;82419;-62
2023/10/16 14:07:36;;;;;;;14.90;2.67;;;23.50;47.60;;;;;;6218726;28;80106;-64
2023/10/16 14:10:36;;;;;;;26.30;2.95;;;23.50;48.30;;;;;;6222751;28;83094;-63
2023/10/16 14:13:38;;;;;;;7.28;1.85;;;23.60;49.40;;;;;;6215750;28;80890;-62
2023/10/16 14:16:41;;;;;;;6.40;2.03;;;23.60;49.70;;;;;;6219473;28;80540;-64
2023/10/16 14:19:47;;;;;;;5.88;1.90;;;23.70;50.00;;;;;;6211073;27;81544;-63
2023/10/16 14:22:48;;;;;;;8.98;2.65;;;23.70;50.80;;;;;;6218417;27;80689;-64
2023/10/16 14:25:49;;;;;;;10.27;2.17;;;23.80;51.20;;;;;;6219526;28;80524;-70
2023/10/16 14:28:59;;;;;;;5.03;2.05;;;23.80;50.50;;;;;;6214391;28;85333;-68
2023/10/16 14:32:02;;;;;;;2.55;1.55;;;23.80;50.90;;;;;;6223299;28;80126;-65
2023/10/16 14:35:03;;;;;;;4.40;1.40;;;23.90;51.30;;;;;;6223394;28;80931;-65
2023/10/16 14:38:05;;;;;;;6.07;2.40;;;23.90;51.30;;;;;;6219270;28;81204;-65
2023/10/16 14:41:09;;;;;;;5.80;2.22;;;23.90;51.20;;;;;;6216553;28;81775;-64
2023/10/16 14:44:09;;;;;;;3.33;1.60;;;23.90;51.40;;;;;;6215458;28;81150;-66
2023/10/16 14:47:10;;;;;;;9.15;2.80;;;23.90;51.40;;;;;;6221612;28;80130;-63
2023/10/16 14:50:14;;;;;;;6.20;2.00;;;24.00;51.60;;;;;;6220362;28;80944;-65
2023/10/16 14:53:19;;;;;;;7.82;2.20;;;24.00;51.20;;;;;;6221267;27;81089;-66
2023/10/16 14:56:19;;;;;;;12.20;2.50;;;24.00;51.20;;;;;;6215407;28;80714;-66
2023/10/16 14:59:20;;;;;;;9.43;2.10;;;24.10;51.10;;;;;;6207491;28;80574;-64
2023/10/16 15:02:22;;;;;;;4.15;1.98;;;24.10;51.70;;;;;;6202634;27;80421;-63
2023/10/16 15:05:24;;;;;;;3.25;1.63;;;24.10;51.10;;;;;;6202182;28;80446;-65
2023/10/16 15:08:24;;;;;;;4.00;2.30;;;24.10;51.10;;;;;;6214955;28;80358;-61
2023/10/16 15:11:28;;;;;;;7.57;2.20;;;24.10;50.90;;;;;;6209532;28;80799;-62
2023/10/16 15:14:29;;;;;;;7.32;2.25;;;24.10;50.70;;;;;;6221057;28;81077;-63
2023/10/16 15:17:29;;;;;;;7.00;2.22;;;24.00;50.90;;;;;;6209640;28;86634;-64
2023/10/16 15:20:31;;;;;;;6.53;2.13;;;24.00;50.80;;;;;;6211949;28;80635;-65
2023/10/16 15:23:31;;;;;;;6.75;2.15;;;24.00;50.90;;;;;;6229189;27;80799;-63
2023/10/16 15:26:32;;;;;;;6.03;2.30;;;24.00;51.20;;;;;;6229197;28;80780;-63
2023/10/16 15:29:33;;;;;;;4.40;2.05;;;23.90;50.90;;;;;;6229899;28;80398;-64
2023/10/16 15:32:34;;;;;;;10.70;2.10;;;23.90;50.50;;;;;;6228590;27;80761;-62
2023/10/16 15:35:35;;;;;;;9.20;2.28;;;23.90;50.50;;;;;;6216636;28;82155;-59
2023/10/16 15:38:37;;;;;;;5.75;2.50;;;23.80;50.50;;;;;;6226438;27;80815;-61
2023/10/16 15:41:38;;;;;;;6.00;2.05;;;23.90;50.60;;;;;;6222617;28;80746;-60
2023/10/16 15:44:39;;;;;;;5.07;2.05;;;23.80;50.50;;;;;;6226123;28;82152;-60
2023/10/16 15:47:42;;;;;;;5.05;2.17;;;23.80;50.30;;;;;;6210686;28;80807;-61
2023/10/16 15:50:44;;;;;;;5.03;2.35;;;23.80;50.80;;;;;;6214755;27;81441;-63
2023/10/16 15:53:49;;;;;;;6.70;2.15;;;23.70;50.70;;;;;;6211997;28;84775;-61
2023/10/16 15:56:51;;;;;;;4.00;2.13;;;23.80;50.90;;;;;;6215280;28;80565;-62
2023/10/16 15:59:52;;;;;;;3.28;1.88;;;23.70;50.70;;;;;;6231555;28;83667;-62
2023/10/16 16:02:52;;;;;;;5.20;2.30;;;23.70;50.60;;;;;;6216212;27;80776;-65
2023/10/16 16:05:53;;;;;;;9.68;2.75;;;23.70;50.70;;;;;;6219408;28;81066;-61
2023/10/16 16:08:55;;;;;;;7.38;2.85;;;23.70;50.60;;;;;;6215949;28;80661;-61
2023/10/16 16:11:56;;;;;;;6.45;2.72;;;23.70;50.40;;;;;;6212257;28;80419;-60
2023/10/16 16:14:57;;;;;;;9.65;2.83;;;23.70;50.60;;;;;;6219879;28;81316;-63
2023/10/16 16:18:00;;;;;;;6.78;2.70;;;23.70;50.10;;;;;;6219108;27;85342;-62
2023/10/16 16:21:04;;;;;;;6.25;2.83;;;23.70;49.70;;;;;;6222489;28;80627;-62
2023/10/16 16:24:05;;;;;;;6.53;2.63;;;23.70;50.00;;;;;;6227060;28;80694;-61
2023/10/16 16:27:07;;;;;;;6.65;2.75;;;23.80;49.70;;;;;;6219228;28;81559;-61
2023/10/16 16:30:08;;;;;;;7.75;2.88;;;23.80;49.20;;;;;;6220215;28;80601;-62
2023/10/16 16:33:09;;;;;;;5.68;2.80;;;23.80;48.90;;;;;;6224716;28;81611;-62
2023/10/16 16:36:11;;;;;;;5.82;3.20;;;23.80;48.80;;;;;;6238117;27;80443;-63
2023/10/16 16:39:18;;;;;;;11.18;2.55;;;23.80;48.90;;;;;;6224327;27;85074;-62
2023/10/16 16:42:18;;;;;;;8.65;3.13;;;23.80;48.80;;;;;;6212626;27;80712;-62
2023/10/16 16:45:20;;;;;;;9.32;3.10;;;23.90;49.00;;;;;;6205590;28;82721;-61
2023/10/16 16:48:21;;;;;;;5.05;2.58;;;23.90;49.20;;;;;;6221625;28;83531;-62
2023/10/16 16:51:23;;;;;;;10.73;3.22;;;23.90;49.00;;;;;;6231899;27;80071;-60
2023/10/16 16:54:26;;;;;;;8.45;2.85;;;23.90;49.10;;;;;;6214048;28;80384;-60
2023/10/16 16:57:28;;;;;;;8.52;3.22;;;23.90;49.80;;;;;;6219497;28;85573;-57
2023/10/16 17:00:28;;;;;;;8.10;3.20;;;23.90;49.20;;;;;;6220050;28;80883;-57
2023/10/16 17:03:29;;;;;;;15.20;3.38;;;24.00;49.00;;;;;;6219238;28;80450;-57
2023/10/16 17:06:30;;;;;;;14.85;3.47;;;24.00;49.10;;;;;;6213639;28;80713;-60
2023/10/16 17:09:31;;;;;;;7.43;3.20;;;24.00;48.80;;;;;;6212086;28;82010;-64
2023/10/16 17:12:31;;;;;;;12.15;4.13;;;24.00;48.80;;;;;;6221506;28;81652;-62
2023/10/16 17:15:34;;;;;;;10.15;3.58;;;24.00;49.20;;;;;;6226427;27;81784;-61
2023/10/16 17:18:36;;;;;;;9.75;3.45;;;24.00;48.90;;;;;;6223602;28;81148;-70
2023/10/16 17:21:36;;;;;;;7.30;3.10;;;24.00;48.60;;;;;;6225407;28;87391;-70
2023/10/16 17:24:37;;;;;;;13.20;4.13;;;24.00;48.90;;;;;;6225332;28;80449;-62
2023/10/16 17:27:38;;;;;;;13.38;3.65;;;24.00;48.70;;;;;;6225580;27;80554;-61